Dades meteomassalio
Diari Summary for Agost 2, 2017 Units:  Metric    English   Both
« Previous Day
Next Day »
Diari Semanal Mensual Anual Personalitzat
  Maxima: Minima: Mijana:
Temperatura: -17.8 °C -6.6 °C -2.3 °C
Rosada: -17.8 °C -11.1 °C -8.3 °C
Humitat: Humidity % 28 % 55 %
Velocitat del vent: 0 km/h 0 km/h 8 km/h
Racha vent: 0 km/h - -
Vent:- - South
Pressio: 0 hPa 34327.3 hPa -
Pluja: 0 mm    
Historical Graphs
 
 
Tabular Data for Agost 2, 2017
Time Temperature Dew Point Pressure Wind Wind Speed Wind Gust Humidity Rainfall Rate (Hourly) solar Conditions
-17.8 °C -17.8 °C 0 hPa Calm     Humidity % 0 mm SolarRadiationWatts/m^2 W/m2 Conditions
00:01 -2.1 °C -8.9 °C 34384.8 hPa South 28.5 km/h 28.5 km/h 47 % 0 mm 0.0 W/m2 CLR
00:06 -1.6 °C -8.9 °C 34384.8 hPa SSE 35.7 km/h 35.7 km/h 45 % 0 mm 0.0 W/m2 CLR
00:11 -1.4 °C -8.8 °C 34384.8 hPa SSE 36.2 km/h 36.2 km/h 45 % 0 mm 0.0 W/m2 CLR
00:16 -1.4 °C -8.8 °C 34384.8 hPa SSW 23.8 km/h 23.8 km/h 45 % 0 mm 0.0 W/m2 CLR
00:21 -1.4 °C -8.8 °C 34384.8 hPa SSW 20.9 km/h 27.2 km/h 45 % 0 mm 0.0 W/m2 CLR
00:26 -1.5 °C -8.6 °C 34384.8 hPa South 29.8 km/h 29.8 km/h 46 % 0 mm 0.0 W/m2 CLR
00:31 -1.5 °C -8.7 °C 34395 hPa Calm     46 % 0 mm 0.0 W/m2 CLR
00:36 -1.6 °C -8.5 °C 34395 hPa Calm     47 % 0 mm 0.0 W/m2 CLR
00:41 -1.7 °C -8.4 °C 34395 hPa ESE 6 km/h 6 km/h 48 % 0 mm 0.0 W/m2 CLR
00:46 -1.8 °C -8.3 °C 34395 hPa SE 6 km/h 6 km/h 49 % 0 mm 0.0 W/m2 CLR
00:51 -1.9 °C -8.4 °C 34395 hPa Calm     49 % 0 mm 0.0 W/m2 CLR
00:56 -2 °C -8.4 °C 34395 hPa Calm     50 % 0 mm 0.0 W/m2 CLR
01:01 -2.1 °C -8.2 °C 34395 hPa Calm     51 % 0 mm 0.0 W/m2 CLR
01:06 -2.1 °C -8.2 °C 34395 hPa Calm     51 % 0 mm 0.0 W/m2 CLR
01:11 -2.1 °C -8.3 °C 34384.8 hPa Calm     51 % 0 mm 0.0 W/m2 CLR
01:16 -2.1 °C -8.3 °C 34395 hPa Calm     51 % 0 mm 0.0 W/m2 CLR
01:21 -2.1 °C -8.3 °C 34395 hPa Calm     51 % 0 mm 0.0 W/m2 CLR
01:26 -2.1 °C -8.3 °C 34395 hPa Calm     51 % 0 mm 0.0 W/m2 CLR
01:31 -2.1 °C -8.3 °C 34384.8 hPa Calm     51 % 0 mm 0.0 W/m2 CLR
01:36 -2.1 °C -8.2 °C 34384.8 hPa Calm     51 % 0 mm 0.0 W/m2 CLR
01:41 -2.2 °C -8.2 °C 34384.8 hPa NE 20.9 km/h 20.9 km/h 52 % 0 mm 0.0 W/m2 CLR
01:46 -2.8 °C -8.3 °C 34384.8 hPa NNE 15 km/h 15 km/h 55 % 0 mm 0.0 W/m2 CLR
01:51 -3.3 °C -8.1 °C 34395 hPa NE 9 km/h 9 km/h 59 % 0 mm 0.0 W/m2 CLR
01:56 -3.5 °C -8 °C 34395 hPa Calm     61 % 0 mm 0.0 W/m2 CLR
02:01 -3.7 °C -8.1 °C 34395 hPa Calm     62 % 0 mm 0.0 W/m2 CLR
02:06 -3.9 °C -7.9 °C 34395 hPa Calm     64 % 0 mm 0.0 W/m2 CLR
02:11 -4 °C -8.1 °C 34395 hPa Calm     64 % 0 mm 0.0 W/m2 CLR
02:16 -4.1 °C -7.9 °C 34395 hPa Calm     65 % 0 mm 0.0 W/m2 CLR
02:21 -4.2 °C -7.9 °C 34395 hPa Calm     66 % 0 mm 0.0 W/m2 CLR
02:26 -4.3 °C -7.9 °C 34395 hPa NNE 15 km/h 15 km/h 67 % 0 mm 0.0 W/m2 CLR
02:31 -4.3 °C -7.5 °C 34395 hPa Calm     70 % 0 mm 0.0 W/m2 CLR
02:36 -4.3 °C -7.5 °C 34395 hPa Calm     70 % 0 mm 0.0 W/m2 CLR
02:41 -4.3 °C -7.4 °C 34395 hPa Calm     71 % 0 mm 0.0 W/m2 CLR
02:46 -4.4 °C -7.6 °C 34395 hPa Calm     71 % 0 mm 0.0 W/m2 CLR
02:51 -4.5 °C -7.4 °C 34395 hPa Calm     72 % 0 mm 0.0 W/m2 CLR
02:56 -4.6 °C -7.3 °C 34395 hPa Calm     74 % 0 mm 0.0 W/m2 CLR
03:02 -4.6 °C -7.4 °C 34395 hPa Calm     73 % 0 mm 0.0 W/m2 CLR
03:07 -4.7 °C -7.4 °C 34395 hPa Calm     74 % 0 mm 0.0 W/m2 CLR
03:12 -4.8 °C -7.5 °C 34395 hPa Calm     74 % 0 mm 0.0 W/m2 CLR
03:17 -4.9 °C -7.5 °C 34395 hPa Calm     75 % 0 mm 0.0 W/m2 CLR
03:22 -4.9 °C -7.3 °C 34395 hPa Calm     77 % 0 mm 0.0 W/m2 CLR
03:27 -5.1 °C -7.6 °C 34395 hPa Calm     76 % 0 mm 0.0 W/m2 CLR
03:32 -5.2 °C -7.5 °C 34405.1 hPa Calm     77 % 0 mm 0.0 W/m2 CLR
03:37 -5.2 °C -7.4 °C 34405.1 hPa Calm     79 % 0 mm 0.0 W/m2 CLR
03:42 -5.3 °C -7.6 °C 34405.1 hPa Calm     78 % 0 mm 0.0 W/m2 CLR
03:43 -5.3 °C -7.4 °C 34405.1 hPa Calm     79 % 0 mm 0.0 W/m2 CLR
03:48 -5.4 °C -7.9 °C 34405.1 hPa Calm     75 % 0 mm 0.0 W/m2 CLR
03:53 -5.4 °C -8 °C 34405.1 hPa Calm     75 % 0 mm 0.0 W/m2 CLR
03:58 -5.4 °C -8.1 °C 34395 hPa Calm     75 % 0 mm 0.0 W/m2 CLR
04:03 -5.5 °C -7.9 °C 34395 hPa Calm     76 % 0 mm 0.0 W/m2 CLR
04:08 -5.6 °C -7.7 °C 34395 hPa Calm     79 % 0 mm 0.0 W/m2 CLR
04:13 -5.6 °C -7.7 °C 34395 hPa Calm     79 % 0 mm 0.0 W/m2 CLR
04:18 -5.6 °C -7.8 °C 34395 hPa Calm     78 % 0 mm 0.0 W/m2 CLR
04:23 -5.7 °C -7.9 °C 34405.1 hPa Calm     78 % 0 mm 0.0 W/m2 CLR
04:28 -5.7 °C -7.9 °C 34395 hPa Calm     78 % 0 mm 0.0 W/m2 CLR
04:33 -5.7 °C -7.9 °C 34395 hPa Calm     78 % 0 mm 0.0 W/m2 CLR
04:38 -5.8 °C -8 °C 34395 hPa Calm     78 % 0 mm 0.0 W/m2 CLR
04:43 -5.9 °C -7.9 °C 34395 hPa Calm     79 % 0 mm 0.0 W/m2 CLR
04:48 -5.9 °C -7.9 °C 34395 hPa Calm     80 % 0 mm 0.0 W/m2 CLR
04:53 -5.9 °C -7.8 °C 34395 hPa Calm     81 % 0 mm 0.0 W/m2 CLR
04:58 -6 °C -8 °C 34395 hPa Calm     80 % 0 mm 0.0 W/m2 CLR
05:03 -6 °C -7.9 °C 34395 hPa Calm     81 % 0 mm 0.0 W/m2 CLR
05:08 -6 °C -7.9 °C 34395 hPa Calm     81 % 0 mm 0.0 W/m2 CLR
05:09 -6 °C -7.9 °C 34395 hPa Calm     81 % 0 mm 0.0 W/m2 CLR
05:14 -6 °C -8 °C 34395 hPa Calm     80 % 0 mm 0.0 W/m2 CLR
05:19 -6.1 °C -8.1 °C 34395 hPa Calm     80 % 0 mm 0.0 W/m2 CLR
05:24 -6.1 °C -8.1 °C 34395 hPa Calm     80 % 0 mm 0.0 W/m2 CLR
05:29 -6.2 °C -8.2 °C 34395 hPa Calm     80 % 0 mm 0.0 W/m2 CLR
05:34 -6.2 °C -8.2 °C 34395 hPa Calm     80 % 0 mm 0.0 W/m2 CLR
05:39 -6.3 °C -8.2 °C 34395 hPa Calm     81 % 0 mm 0.0 W/m2 CLR
05:44 -6.3 °C -8.2 °C 34395 hPa Calm   2.3 km/h 81 % 0 mm 0.0 W/m2 CLR
05:49 -6.3 °C -8.2 °C 34395 hPa Calm     81 % 0 mm 0.0 W/m2 CLR
05:54 -6.3 °C -8.2 °C 34395 hPa Calm     81 % 0 mm 0.0 W/m2 CLR
05:59 -6.3 °C -8.3 °C 34405.1 hPa Calm     80 % 0 mm 0.0 W/m2 CLR
06:04 -6.4 °C -8.4 °C 34405.1 hPa Calm     80 % 0 mm 0.0 W/m2 CLR
06:09 -6.5 °C -8.4 °C 34405.1 hPa Calm     80 % 0 mm 0.0 W/m2 CLR
06:14 -6.6 °C -8.4 °C 34405.1 hPa Calm     81 % 0 mm 0.0 W/m2 CLR
06:19 -6.6 °C -8.5 °C 34405.1 hPa Calm     81 % 0 mm 0.0 W/m2 CLR
06:24 -6.6 °C -8.5 °C 34405.1 hPa SW 2.6 km/h   81 % 0 mm 0.0 W/m2 CLR
06:29 -6.6 °C -8.6 °C 34405.1 hPa WSW 6 km/h 6 km/h 80 % 0 mm 0.0 W/m2 CLR
06:34 -6.6 °C -8.6 °C 34405.1 hPa Calm     80 % 0 mm 0.0 W/m2 CLR
06:39 -6.6 °C -8.6 °C 34418.7 hPa Calm     80 % 0 mm 0.0 W/m2 CLR
06:44 -6.6 °C -8.6 °C 34418.7 hPa Calm     80 % 0 mm 0.0 W/m2 CLR
06:49 -6.6 °C -8.6 °C 34418.7 hPa Calm     80 % 0 mm 0.0 W/m2 OVC
06:54 -6.6 °C -8.5 °C 34418.7 hPa Calm     81 % 0 mm 0.0 W/m2 OVC
06:59 -6.6 °C -8.6 °C 34418.7 hPa Calm     80 % 0 mm 5.0 W/m2 OVC
07:04 -6.6 °C -8.4 °C 34428.8 hPa Calm     81 % 0 mm 7.0 W/m2 BKN
07:09 -6.6 °C -8.6 °C 34428.8 hPa Calm     80 % 0 mm 11.0 W/m2 BKN
07:14 -6.6 °C -8.4 °C 34442.4 hPa Calm     82 % 0 mm 16.0 W/m2 BKN
07:19 -6.6 °C -8.2 °C 34442.4 hPa WSW 9 km/h 9 km/h 83 % 0 mm 21.0 W/m2 BKN
07:24 -6.4 °C -8.2 °C 34442.4 hPa SW 3.1 km/h 3.1 km/h 82 % 0 mm 26.0 W/m2 BKN
07:29 -6.4 °C -8.2 °C 34442.4 hPa Calm     82 % 0 mm 33.0 W/m2 BKN
07:34 -6.3 °C -8.1 °C 34442.4 hPa Calm     82 % 0 mm 35.0 W/m2 BKN
07:39 -6.3 °C -8.2 °C 34442.4 hPa Calm     81 % 0 mm 46.0 W/m2 SCT
07:44 -6.2 °C -8 °C 34442.4 hPa SW 3.1 km/h 3.1 km/h 82 % 0 mm 51.0 W/m2 SCT
07:49 -6.2 °C -7.9 °C 34452.6 hPa Calm     82 % 0 mm 58.0 W/m2 SCT
07:54 -6.1 °C -8 °C 34452.6 hPa Calm     81 % 0 mm 67.0 W/m2 FEW
07:59 -6.1 °C -7.9 °C 34452.6 hPa Calm     81 % 0 mm 74.0 W/m2 SCT
08:04 -6 °C -7.9 °C 34452.6 hPa Calm     81 % 0 mm 81.0 W/m2 FEW
08:05 -6 °C -7.9 °C 34452.6 hPa Calm     81 % 0 mm 83.0 W/m2 FEW
08:10 -5.9 °C -7.8 °C 34452.6 hPa Calm     81 % 0 mm 95.0 W/m2 FEW
08:15 -5.8 °C -7.7 °C 34452.6 hPa Calm     81 % 0 mm 102.0 W/m2 CLR
08:20 -5.7 °C -7.6 °C 34452.6 hPa Calm     81 % 0 mm 104.0 W/m2 CLR
08:25 -5.6 °C -7.4 °C 34452.6 hPa Calm     81 % 0 mm 156.0 W/m2 CLR
08:30 -5.4 °C -7.4 °C 34452.6 hPa Calm     80 % 0 mm 114.0 W/m2 CLR
08:35 -5.4 °C -7.5 °C 34442.4 hPa Calm     79 % 0 mm 120.0 W/m2 CLR
08:40 -5.3 °C -7.3 °C 34442.4 hPa Calm     80 % 0 mm 142.0 W/m2 CLR
08:45 -5.2 °C -7.3 °C 34442.4 hPa Calm     79 % 0 mm 257.0 W/m2 CLR
08:50 -5 °C -7.3 °C 34442.4 hPa Calm     78 % 0 mm 320.0 W/m2 CLR
08:55 -4.7 °C -7.2 °C 34428.8 hPa Calm     76 % 0 mm 188.0 W/m2 CLR
09:00 -4.7 °C -7.3 °C 34428.8 hPa Calm     75 % 0 mm 171.0 W/m2 CLR
09:05 -4.6 °C -7.3 °C 34428.8 hPa Calm     75 % 0 mm 183.0 W/m2 CLR
09:10 -4.6 °C -7.3 °C 34428.8 hPa Calm     75 % 0 mm 220.0 W/m2 CLR
09:15 -4.5 °C -7.1 °C 34428.8 hPa Calm     75 % 0 mm 216.0 W/m2 CLR
09:20 -4.4 °C -7.1 °C 34442.4 hPa Calm     74 % 0 mm 188.0 W/m2 CLR
09:25 -4.3 °C -7.1 °C 34442.4 hPa Calm     74 % 0 mm 290.0 W/m2 CLR
09:30 -4.2 °C -7.1 °C 34442.4 hPa Calm     73 % 0 mm 253.0 W/m2 CLR
09:35 -4.1 °C -6.9 °C 34442.4 hPa Calm     73 % 0 mm 251.0 W/m2 CLR
09:40 -3.9 °C -6.9 °C 34442.4 hPa Calm     72 % 0 mm 476.0 W/m2 CLR
09:45 -3.7 °C -6.8 °C 34452.6 hPa Calm     71 % 0 mm 320.0 W/m2 CLR
09:50 -3.5 °C -6.9 °C 34452.6 hPa Calm     69 % 0 mm 345.0 W/m2 CLR
09:55 -3.3 °C -6.9 °C 34452.6 hPa Calm     68 % 0 mm 517.0 W/m2 CLR
10:00 -3.2 °C -6.8 °C 34442.4 hPa NNW 3.1 km/h   67 % 0 mm 531.0 W/m2 CLR
10:05 -2.9 °C -6.6 °C 34442.4 hPa Calm     67 % 0 mm 540.0 W/m2 CLR
10:10 -2.6 °C -6.7 °C 34442.4 hPa Calm     64 % 0 mm 545.0 W/m2 CLR
10:15 -2.3 °C -6.6 °C 34442.4 hPa ENE 15 km/h 15 km/h 63 % 0 mm 550.0 W/m2 CLR
10:20 -2.3 °C -6.6 °C 34442.4 hPa East 15 km/h 15 km/h 63 % 0 mm 613.0 W/m2 CLR
10:25 -2.3 °C -6.8 °C 34428.8 hPa SE 12.9 km/h 12.9 km/h 61 % 0 mm 642.0 W/m2 CLR
10:30 -2.1 °C -6.7 °C 34428.8 hPa Calm     61 % 0 mm 693.0 W/m2 CLR
10:31 -2.1 °C -6.7 °C 34428.8 hPa Calm     61 % 0 mm 693.0 W/m2 CLR
10:36 -2 °C -6.6 °C 34428.8 hPa SE 6 km/h 6 km/h 61 % 0 mm 473.0 W/m2 CLR
10:41 -2.1 °C -6.6 °C 34428.8 hPa Calm     61 % 0 mm 536.0 W/m2 CLR
10:46 -2 °C -6.6 °C 34405.1 hPa ENE 17.9 km/h 17.9 km/h 61 % 0 mm 288.0 W/m2 CLR
10:51 -1.9 °C -6.3 °C 34418.7 hPa ESE 9 km/h 9 km/h 62 % 0 mm 622.0 W/m2 CLR
10:56 -1.6 °C -6.2 °C 34418.7 hPa East 9 km/h 9 km/h 61 % 0 mm 422.0 W/m2 CLR
11:01 -1.4 °C -6.2 °C 34405.1 hPa NE 9 km/h   60 % 0 mm 612.0 W/m2 CLR
11:06 -1.2 °C -6.1 °C 34418.7 hPa ENE 15 km/h 15 km/h 59 % 0 mm 645.0 W/m2 CLR
11:11 -0.9 °C -6 °C 34405.1 hPa ENE 2.6 km/h   58 % 0 mm 650.0 W/m2 CLR
11:16 -0.7 °C -6.3 °C 34418.7 hPa NE 3.1 km/h 3.1 km/h 55 % 0 mm 654.0 W/m2 CLR
11:21 -0.5 °C -6.1 °C 34418.7 hPa Calm     55 % 0 mm 666.0 W/m2 CLR
11:26 -0.3 °C -6.2 °C 34418.7 hPa NNE 11.9 km/h   54 % 0 mm 679.0 W/m2 CLR
11:31 -0.3 °C -6.2 °C 34428.8 hPa Calm     53 % 0 mm 691.0 W/m2 CLR
11:36 -0.2 °C -6.2 °C 34428.8 hPa Calm     53 % 0 mm 698.0 W/m2 CLR
11:41 -0.2 °C -6.2 °C 34428.8 hPa Calm   0.3 km/h 53 % 0 mm 712.0 W/m2 CLR
11:46 0.1 °C -6.1 °C 34428.8 hPa Calm     52 % 0 mm 722.0 W/m2 CLR
11:51 0.3 °C -6.3 °C 34442.4 hPa ENE 6 km/h 6 km/h 50 % 0 mm 737.0 W/m2 CLR
11:56 0.3 °C -6.2 °C 34452.6 hPa NNW 17.9 km/h 17.9 km/h 50 % 0 mm 747.0 W/m2 CLR
12:01 0.3 °C -6.6 °C 34452.6 hPa WSW 26.9 km/h 26.9 km/h 48 % 0 mm 766.0 W/m2 CLR
12:06 0.4 °C -7.3 °C 34452.6 hPa WNW 32.8 km/h 32.8 km/h 44 % 0 mm 775.0 W/m2 CLR
12:11 0.3 °C -6.2 °C 34452.6 hPa North 26.9 km/h 26.9 km/h 50 % 0 mm 796.0 W/m2 CLR
12:16 0.3 °C -6.6 °C 34452.6 hPa NNW 20.9 km/h 20.9 km/h 48 % 0 mm 780.0 W/m2 CLR
12:21 0.4 °C -6.7 °C 34452.6 hPa NW 29.8 km/h 29.8 km/h 47 % 0 mm 830.0 W/m2 CLR
12:26 0.5 °C -7.4 °C 34452.6 hPa North 23.8 km/h 23.8 km/h 43 % 0 mm 842.0 W/m2 CLR
12:31 0.7 °C -7.7 °C 34452.6 hPa WNW 29.8 km/h 29.8 km/h 41 % 0 mm 847.0 W/m2 CLR
12:36 0.7 °C -7.4 °C 34452.6 hPa NNW 32.8 km/h 32.8 km/h 42 % 0 mm 842.0 W/m2 CLR
12:41 0.7 °C -7.3 °C 34462.7 hPa NNW 20.9 km/h 20.9 km/h 43 % 0 mm 817.0 W/m2 CLR
12:46 0.8 °C -7.6 °C 34452.6 hPa NNW 31.1 km/h 31.1 km/h 41 % 0 mm 788.0 W/m2 CLR
12:51 0.9 °C -7.7 °C 34462.7 hPa WSW 29.8 km/h 29.8 km/h 40 % 0 mm 858.0 W/m2 CLR
12:56 0.8 °C -8.7 °C 34462.7 hPa NW 38.8 km/h 38.8 km/h 36 % 0 mm 900.0 W/m2 CLR
13:01 0.9 °C -8.6 °C 34462.7 hPa NW 29.8 km/h 29.8 km/h 36 % 0 mm 805.0 W/m2 CLR
13:06 1 °C -8.8 °C 34452.6 hPa West 35.7 km/h 35.7 km/h 35 % 0 mm 735.0 W/m2 CLR
13:11 0.9 °C -8.6 °C 34452.6 hPa WNW 41.4 km/h 41.4 km/h 36 % 0 mm 663.0 W/m2 CLR
13:16 0.6 °C -9.1 °C 34452.6 hPa NW 47.6 km/h 47.6 km/h 35 % 0 mm 485.0 W/m2 CLR
13:21 0.5 °C -9.7 °C 34452.6 hPa NNW 26.9 km/h 26.9 km/h 33 % 0 mm 387.0 W/m2 CLR
13:26 0.4 °C -9.6 °C 34452.6 hPa NW 47.6 km/h 47.6 km/h 34 % 0 mm 485.0 W/m2 CLR
13:31 0.4 °C -9.3 °C 34452.6 hPa NW 28.5 km/h 28.5 km/h 35 % 0 mm 476.0 W/m2 CLR
13:36 0.6 °C -9.7 °C 34442.4 hPa WNW 35.7 km/h 35.7 km/h 33 % 0 mm 462.0 W/m2 CLR
13:41 0.6 °C -10.7 °C 34442.4 hPa NW 44.7 km/h 44.7 km/h 29 % 0 mm 471.0 W/m2 CLR
13:46 0.7 °C -10.7 °C 34442.4 hPa NNW 36.2 km/h 36.2 km/h 29 % 0 mm 480.0 W/m2 CLR
13:51 0.6 °C -11.1 °C 34442.4 hPa NNW 47.6 km/h 47.6 km/h 28 % 0 mm 425.0 W/m2 CLR
13:56 0.6 °C -10.8 °C 34442.4 hPa NW 20.9 km/h 20.9 km/h 29 % 0 mm 417.0 W/m2 CLR
14:01 0.4 °C -10.9 °C 34428.8 hPa NNE 20.9 km/h 20.9 km/h 29 % 0 mm 388.0 W/m2 CLR
14:06 0.4 °C -10.9 °C 34428.8 hPa NNE 23.8 km/h 23.8 km/h 29 % 0 mm 385.0 W/m2 CLR
14:11 0.4 °C -10.9 °C 34442.4 hPa NNW 15.6 km/h 15.6 km/h 29 % 0 mm 450.0 W/m2 CLR
14:16 0.6 °C -10.8 °C 34442.4 hPa Calm     29 % 0 mm 418.0 W/m2 CLR
14:21 0.6 °C -10.7 °C 34442.4 hPa North 29.8 km/h 29.8 km/h 29 % 0 mm 439.0 W/m2 CLR
14:26 0.5 °C -10.8 °C 34428.8 hPa NNW 12.9 km/h 14.2 km/h 29 % 0 mm 360.0 W/m2 CLR
14:32 0.4 °C -10.6 °C 34442.4 hPa NNW 11.9 km/h 11.9 km/h 30 % 0 mm 348.0 W/m2 CLR
14:37 0.4 °C -10.6 °C 34442.4 hPa NNW 9 km/h 9 km/h 30 % 0 mm 336.0 W/m2 CLR
14:42 0.4 °C -10.6 °C 34442.4 hPa NW 15 km/h 15 km/h 30 % 0 mm 332.0 W/m2 CLR
14:47 0.3 °C -10.4 °C 34442.4 hPa NNW 23.8 km/h 23.8 km/h 31 % 0 mm 330.0 W/m2 CLR
14:52 0.2 °C -10.3 °C 34442.4 hPa NW 20.9 km/h 20.9 km/h 32 % 0 mm 369.0 W/m2 CLR
14:57 0.2 °C -10.1 °C 34428.8 hPa WNW 11.9 km/h 11.9 km/h 33 % 0 mm 657.0 W/m2 CLR
15:02 0.3 °C -10.2 °C 34428.8 hPa WNW 20.9 km/h 20.9 km/h 32 % 0 mm 731.0 W/m2 CLR
15:07 0.5 °C -9.9 °C 34428.8 hPa WNW 29.8 km/h 29.8 km/h 32 % 0 mm 763.0 W/m2 CLR
15:12 0.6 °C -10.2 °C 34428.8 hPa WNW 17.9 km/h 17.9 km/h 31 % 0 mm 696.0 W/m2 CLR
15:17 0.6 °C -10.2 °C 34428.8 hPa Calm     31 % 0 mm 775.0 W/m2 CLR
15:22 0.7 °C -10.1 °C 34428.8 hPa North 20.8 km/h 20.8 km/h 31 % 0 mm 965.0 W/m2 CLR
15:27 0.8 °C -10.2 °C 34428.8 hPa NNE 17.9 km/h 17.9 km/h 30 % 0 mm 979.0 W/m2 CLR
15:32 0.9 °C -10.2 °C 34428.8 hPa NNE 25.9 km/h 25.9 km/h 30 % 0 mm 872.0 W/m2 CLR
15:37 0.9 °C -10.4 °C 34428.8 hPa Calm     29 % 0 mm 585.0 W/m2 CLR
15:42 0.9 °C -10.4 °C 34428.8 hPa Calm     29 % 0 mm 285.0 W/m2 CLR
15:47 0.9 °C -10.2 °C 34428.8 hPa ENE 12.9 km/h 12.9 km/h 30 % 0 mm 264.0 W/m2 CLR
15:52 0.8 °C -10.3 °C 34428.8 hPa NE 9 km/h 9 km/h 30 % 0 mm 236.0 W/m2 CLR
15:57 0.7 °C -10.3 °C 34428.8 hPa Calm     30 % 0 mm 193.0 W/m2 CLR
16:02 0.7 °C -10.1 °C 34418.7 hPa Calm     31 % 0 mm 158.0 W/m2 CLR
16:07 0.6 °C -10.2 °C 34418.7 hPa NE 9 km/h 9 km/h 31 % 0 mm 155.0 W/m2 CLR
16:12 0.6 °C -10.2 °C 34418.7 hPa NE 11.9 km/h 11.9 km/h 31 % 0 mm 165.0 W/m2 CLR
16:17 0.5 °C -10.3 °C 34418.7 hPa Calm     31 % 0 mm 162.0 W/m2 CLR
16:22 0.4 °C -10.3 °C 34418.7 hPa Calm     31 % 0 mm 146.0 W/m2 CLR
16:27 0.4 °C -10.1 °C 34418.7 hPa NE 9 km/h 9 km/h 32 % 0 mm 120.0 W/m2 CLR
16:32 0.4 °C -10.1 °C 34418.7 hPa Calm     32 % 0 mm 86.0 W/m2 CLR
16:37 0.4 °C -10.1 °C 34418.7 hPa Calm     32 % 0 mm 60.0 W/m2 FEW
16:42 0.3 °C -10.4 °C 34418.7 hPa Calm     31 % 0 mm 46.0 W/m2 SCT
16:47 0.2 °C -10.2 °C 34418.7 hPa Calm     32 % 0 mm 33.0 W/m2 SCT
16:52 0.2 °C -10.2 °C 34418.7 hPa Calm     32 % 0 mm 33.0 W/m2 BKN
16:57 0.2 °C -10.3 °C 34405.1 hPa Calm     32 % 0 mm 35.0 W/m2 BKN
17:02 0.1 °C -10.1 °C 34405.1 hPa Calm     33 % 0 mm 46.0 W/m2 BKN
17:07 0 °C -10.2 °C 34395 hPa Calm     33 % 0 mm 67.0 W/m2 SCT
17:12 -0.1 °C -9.9 °C 34384.8 hPa NNE 9 km/h 9 km/h 34 % 0 mm 111.0 W/m2 FEW
17:17 -0.1 °C -9.9 °C 34384.8 hPa ENE 15 km/h 15 km/h 34 % 0 mm 183.0 W/m2 CLR
17:22 0 °C -9.7 °C 34384.8 hPa ENE 9 km/h 9 km/h 35 % 0 mm 230.0 W/m2 CLR
17:27 0.1 °C -8.4 °C 34384.8 hPa East 28.5 km/h 28.5 km/h 40 % 0 mm 274.0 W/m2 CLR
17:32 0.1 °C -7.4 °C 34384.8 hPa ESE 35.7 km/h 35.7 km/h 45 % 0 mm 404.0 W/m2 CLR
17:37 -0.1 °C -7.3 °C 34371.3 hPa ESE 35.7 km/h 35.7 km/h 46 % 0 mm 497.0 W/m2 CLR
17:42 -0.1 °C -7.2 °C 34371.3 hPa ESE 32.8 km/h 32.8 km/h 47 % 0 mm 415.0 W/m2 CLR
17:47 -0.2 °C -7.4 °C 34371.3 hPa ESE 35.7 km/h 35.7 km/h 46 % 0 mm 369.0 W/m2 CLR
17:52 -0.2 °C -7.3 °C 34361.1 hPa East 29.8 km/h 29.8 km/h 47 % 0 mm 380.0 W/m2 CLR
17:57 -0.2 °C -7.3 °C 34361.1 hPa ESE 23.8 km/h 23.8 km/h 47 % 0 mm 329.0 W/m2 CLR
18:02 -0.2 °C -7.2 °C 34361.1 hPa ESE 17.9 km/h 17.9 km/h 47 % 0 mm 258.0 W/m2 CLR
18:07 -0.2 °C -7.3 °C 34347.6 hPa ESE 26.9 km/h 26.9 km/h 47 % 0 mm 292.0 W/m2 CLR
18:12 -0.3 °C -7.6 °C 34347.6 hPa ESE 29.8 km/h 29.8 km/h 46 % 0 mm 206.0 W/m2 CLR
18:17 -0.3 °C -7.4 °C 34347.6 hPa SE 15 km/h 15 km/h 47 % 0 mm 220.0 W/m2 CLR
18:22 -0.3 °C -7.4 °C 34347.6 hPa Calm     47 % 0 mm 230.0 W/m2 CLR
18:28 -0.3 °C -7.3 °C 34347.6 hPa SE 9 km/h 9 km/h 47 % 0 mm 214.0 W/m2 CLR
18:33 -0.3 °C -7.3 °C 34347.6 hPa East 10.3 km/h 11.9 km/h 47 % 0 mm 190.0 W/m2 CLR
18:38 -0.4 °C -7.2 °C 34347.6 hPa ESE 12.9 km/h 13.7 km/h 48 % 0 mm 225.0 W/m2 CLR
18:43 -0.4 °C -7.3 °C 34337.4 hPa East 3.1 km/h   48 % 0 mm 330.0 W/m2 CLR
18:48 -0.4 °C -7.1 °C 34337.4 hPa Calm     49 % 0 mm 350.0 W/m2 CLR
18:53 -0.3 °C -7.2 °C 34337.4 hPa Calm     48 % 0 mm 318.0 W/m2 CLR
18:58 -0.3 °C -7.3 °C 34337.4 hPa Calm     47 % 0 mm 315.0 W/m2 CLR
19:03 -0.3 °C -7.3 °C 34337.4 hPa Calm     47 % 0 mm 294.0 W/m2 CLR
19:08 -0.2 °C -7.4 °C 34337.4 hPa Calm     46 % 0 mm 276.0 W/m2 CLR
19:13 -0.2 °C -7.4 °C 34327.3 hPa Calm     46 % 0 mm 265.0 W/m2 CLR
19:18 -0.2 °C -7.6 °C 34327.3 hPa Calm     45 % 0 mm 248.0 W/m2 CLR
19:23 -0.1 °C -7.7 °C 34327.3 hPa Calm     44 % 0 mm 234.0 W/m2 CLR
19:28 -0.1 °C -7.9 °C 34327.3 hPa SE 2.6 km/h   43 % 0 mm 214.0 W/m2 CLR
19:33 -0.1 °C -8.1 °C 34327.3 hPa SE 15 km/h 15 km/h 42 % 0 mm 202.0 W/m2 CLR
19:38 -0.1 °C -8.1 °C 34327.3 hPa SE 15 km/h 15 km/h 42 % 0 mm 188.0 W/m2 CLR
19:43 0.1 °C -8.2 °C 34327.3 hPa SE 17.9 km/h 17.9 km/h 41 % 0 mm 171.0 W/m2 CLR
19:48 0.1 °C -8.2 °C 34327.3 hPa SE 12.9 km/h 12.9 km/h 41 % 0 mm 155.0 W/m2 CLR
19:53 0.1 °C -8.4 °C 34327.3 hPa ESE 11.9 km/h 11.9 km/h 40 % 0 mm 139.0 W/m2 CLR
19:58 0.2 °C -8.6 °C 34327.3 hPa SE 11.9 km/h 11.9 km/h 39 % 0 mm 127.0 W/m2 CLR
20:03 0.2 °C -8.6 °C 34327.3 hPa SE 17.9 km/h 17.9 km/h 39 % 0 mm 111.0 W/m2 CLR
20:08 0.2 °C -8.3 °C 34327.3 hPa SE 9 km/h 9 km/h 40 % 0 mm 100.0 W/m2 CLR
20:13 0.2 °C -8.3 °C 34337.4 hPa ESE 3.1 km/h 3.1 km/h 40 % 0 mm 88.0 W/m2 CLR
20:18 0.1 °C -8 °C 34337.4 hPa ESE 9 km/h 9 km/h 42 % 0 mm 77.0 W/m2 FEW
20:23 -0.1 °C -8.1 °C 34337.4 hPa ESE 11.9 km/h 11.9 km/h 42 % 0 mm 63.0 W/m2 SCT
20:28 -0.1 °C -8.2 °C 34337.4 hPa Calm     42 % 0 mm 54.0 W/m2 SCT
20:33 -0.2 °C -8.2 °C 34337.4 hPa Calm     42 % 0 mm 44.0 W/m2 BKN
20:38 -0.3 °C -8.5 °C 34337.4 hPa SE 20.9 km/h 20.9 km/h 41 % 0 mm 35.0 W/m2 BKN
20:43 -0.4 °C -8.7 °C 34337.4 hPa SE 20.9 km/h 20.9 km/h 41 % 0 mm 25.0 W/m2 BKN
20:48 -0.5 °C -8.5 °C 34337.4 hPa SE 11.9 km/h 11.9 km/h 42 % 0 mm 19.0 W/m2 BKN
20:53 -0.6 °C -8.8 °C 34347.6 hPa Calm     41 % 0 mm 14.0 W/m2 BKN
20:58 -0.5 °C -8.7 °C 34347.6 hPa Calm     41 % 0 mm 11.0 W/m2 BKN
21:03 -0.5 °C -8.7 °C 34347.6 hPa Calm     41 % 0 mm 7.0 W/m2 BKN
21:08 -0.6 °C -8.8 °C 34347.6 hPa Calm     41 % 0 mm 5.0 W/m2 OVC
21:13 -0.6 °C -8.8 °C 34347.6 hPa Calm     41 % 0 mm 0.0 W/m2 OVC
21:18 -0.7 °C -9.1 °C 34361.1 hPa Calm     40 % 0 mm 0.0 W/m2 OVC
21:23 -0.7 °C -9.1 °C 34361.1 hPa Calm     40 % 0 mm 0.0 W/m2 OVC
21:28 -0.7 °C -8.9 °C 34361.1 hPa Calm     41 % 0 mm 0.0 W/m2 CLR
21:33 -0.9 °C -9.1 °C 34361.1 hPa SE 23.8 km/h 23.8 km/h 41 % 0 mm 0.0 W/m2 CLR
21:38 -0.9 °C -9.1 °C 34371.3 hPa SSE 23.8 km/h 23.8 km/h 41 % 0 mm 0.0 W/m2 CLR
21:43 -0.9 °C -8.9 °C 34371.3 hPa South 12.9 km/h 12.9 km/h 42 % 0 mm 0.0 W/m2 CLR
21:48 -1.1 °C -9 °C 34371.3 hPa South 15 km/h 15 km/h 42 % 0 mm 0.0 W/m2 CLR
21:53 -1.1 °C -8.8 °C 34371.3 hPa Calm     43 % 0 mm 0.0 W/m2 CLR
21:58 -1.2 °C -8.9 °C 34371.3 hPa Calm     43 % 0 mm 0.0 W/m2 CLR
22:03 -1.3 °C -8.8 °C 34384.8 hPa SSE 15.6 km/h 15.6 km/h 44 % 0 mm 0.0 W/m2 CLR
22:08 -1.3 °C -8.8 °C 34384.8 hPa SSE 18.2 km/h 18.2 km/h 44 % 0 mm 0.0 W/m2 CLR
22:13 -1.3 °C -8.6 °C 34384.8 hPa SSE 23.3 km/h 23.3 km/h 45 % 0 mm 0.0 W/m2 CLR
22:18 -1.3 °C -8.7 °C 34384.8 hPa SSE 15 km/h 15 km/h 45 % 0 mm 0.0 W/m2 CLR
22:23 -1.4 °C -8.6 °C 34384.8 hPa Calm     46 % 0 mm 0.0 W/m2 CLR
22:28 -1.6 °C -8.5 °C 34395 hPa SSE 12.9 km/h 12.9 km/h 47 % 0 mm 0.0 W/m2 CLR
22:33 -1.6 °C -8.4 °C 34395 hPa SSE 20.9 km/h 20.9 km/h 48 % 0 mm 0.0 W/m2 CLR
22:38 -1.7 °C -8.4 °C 34395 hPa Calm     48 % 0 mm 0.0 W/m2 CLR
22:43 -1.8 °C -8.5 °C 34395 hPa Calm     48 % 0 mm 0.0 W/m2 CLR
22:48 -1.8 °C -8.3 °C 34395 hPa Calm     49 % 0 mm 0.0 W/m2 CLR
22:53 -1.8 °C -8.4 °C 34395 hPa Calm     49 % 0 mm 0.0 W/m2 CLR
22:58 -1.9 °C -8.4 °C 34395 hPa Calm     49 % 0 mm 0.0 W/m2 CLR
23:03 -1.9 °C -8.5 °C 34395 hPa Calm     49 % 0 mm 0.0 W/m2 CLR
23:08 -2 °C -8.5 °C 34395 hPa Calm     49 % 0 mm 0.0 W/m2 CLR
23:13 -2 °C -8.5 °C 34395 hPa Calm     49 % 0 mm 0.0 W/m2 CLR
23:18 -2.1 °C -8.6 °C 34395 hPa Calm     49 % 0 mm 0.0 W/m2 CLR
23:23 -2.1 °C -8.7 °C 34395 hPa Calm     49 % 0 mm 0.0 W/m2 CLR
23:28 -2.2 °C -8.7 °C 34395 hPa Calm     49 % 0 mm 0.0 W/m2 CLR
23:33 -2.3 °C -8.8 °C 34395 hPa Calm     49 % 0 mm 0.0 W/m2 CLR
23:38 -2.3 °C -8.6 °C 34395 hPa Calm     50 % 0 mm 0.0 W/m2 CLR
23:43 -2.4 °C -8.7 °C 34405.1 hPa Calm     50 % 0 mm 0.0 W/m2 CLR
23:48 -2.5 °C -8.7 °C 34395 hPa Calm     51 % 0 mm 0.0 W/m2 CLR
23:49 -2.5 °C -8.7 °C 34395 hPa Calm     51 % 0 mm 0.0 W/m2 CLR
23:54 -2.6 °C -8.7 °C 34405.1 hPa Calm     51 % 0 mm 0.0 W/m2 CLR
23:59 -2.8 °C -8.7 °C 34395 hPa Calm     52 % 0 mm 0.0 W/m2 CLR
Lo Temps de Massalio
Compliments of Weather Underground - 1.25 mb